createdAt,value
2023-04-14T00:01:47.889Z,2.60
2023-04-14T00:06:53.112Z,2.40
2023-04-14T00:11:57.859Z,2.30
2023-04-14T00:17:01.845Z,2.40
2023-04-14T00:22:06.043Z,2.30
2023-04-14T00:27:13.642Z,2.60
2023-04-14T00:32:17.825Z,2.50
2023-04-14T00:37:21.914Z,2.70
2023-04-14T00:42:25.842Z,2.20
2023-04-14T00:47:30.112Z,2.10
2023-04-14T00:52:34.223Z,2.20
2023-04-14T00:57:39.292Z,1.90
2023-04-14T01:02:43.826Z,1.80
2023-04-14T01:07:49.269Z,2.00
2023-04-14T01:13:27.906Z,1.60
2023-04-14T01:18:52.414Z,1.90
2023-04-14T01:24:15.793Z,2.00
2023-04-14T01:29:41.693Z,2.00
2023-04-14T01:34:48.806Z,1.90
2023-04-14T01:39:54.502Z,1.90
2023-04-14T01:45:06.235Z,1.90
2023-04-14T01:50:12.253Z,1.90
2023-04-14T01:55:19.271Z,1.80
2023-04-14T02:00:24.730Z,1.90
2023-04-14T02:05:31.120Z,2.20
2023-04-14T02:10:38.011Z,1.60
2023-04-14T02:15:42.557Z,1.80
2023-04-14T02:20:49.249Z,1.50
2023-04-14T02:25:56.865Z,1.50
2023-04-14T02:31:06.153Z,1.40
2023-04-14T02:36:21.095Z,1.80
2023-04-14T02:41:30.195Z,1.90
2023-04-14T02:46:41.353Z,1.80
2023-04-14T02:51:47.978Z,1.70
2023-04-14T02:56:53.378Z,1.50
2023-04-14T03:02:06.526Z,1.60
2023-04-14T03:07:14.951Z,1.60
2023-04-14T03:12:20.683Z,1.70
2023-04-14T03:17:26.656Z,1.60
2023-04-14T03:22:36.588Z,1.40
2023-04-14T03:27:43.141Z,1.40
2023-04-14T03:32:50.366Z,1.40
2023-04-14T03:38:00.036Z,1.50
2023-04-14T03:43:10.229Z,1.50
2023-04-14T03:48:18.207Z,1.50
2023-04-14T03:53:26.566Z,1.40
2023-04-14T03:58:32.884Z,1.90
2023-04-14T04:03:38.916Z,1.60
2023-04-14T04:08:45.052Z,1.60
2023-04-14T04:13:50.063Z,1.20
2023-04-14T04:18:54.860Z,1.40
2023-04-14T04:24:06.570Z,1.30
2023-04-14T04:29:11.790Z,1.40
2023-04-14T04:34:17.617Z,1.70
2023-04-14T04:39:23.310Z,1.50
2023-04-14T04:44:27.564Z,1.40
2023-04-14T04:49:31.694Z,1.60
2023-04-14T04:54:39.946Z,1.60
2023-04-14T04:59:43.941Z,1.60
2023-04-14T05:04:49.088Z,1.50
2023-04-14T05:09:53.359Z,1.20
2023-04-14T05:14:57.602Z,1.80
2023-04-14T05:20:02.475Z,1.60
2023-04-14T05:25:06.921Z,1.70
2023-04-14T05:30:11.520Z,1.40
2023-04-14T05:35:16.505Z,1.60
2023-04-14T05:40:22.353Z,1.60
2023-04-14T05:45:26.381Z,1.40
2023-04-14T05:50:30.753Z,1.50
2023-04-14T05:55:35.369Z,1.50
2023-04-14T06:00:39.200Z,2.10
2023-04-14T06:05:43.553Z,2.50
2023-04-14T06:10:47.685Z,2.30
2023-04-14T06:15:52.016Z,2.30
2023-04-14T06:20:56.052Z,2.10
2023-04-14T06:26:00.195Z,2.40
2023-04-14T06:31:04.321Z,2.00
2023-04-14T06:36:08.691Z,1.90
2023-04-14T06:41:12.493Z,2.20
2023-04-14T06:46:17.798Z,4.50
2023-04-14T06:51:21.786Z,2.50
2023-04-14T06:56:25.919Z,2.20
2023-04-14T07:01:30.088Z,4.10
2023-04-14T07:06:34.209Z,2.30
2023-04-14T07:11:38.334Z,2.80
2023-04-14T07:16:42.314Z,2.80
2023-04-14T07:21:47.333Z,3.50
2023-04-14T07:26:51.131Z,3.00
2023-04-14T07:31:56.313Z,2.80
2023-04-14T07:37:00.843Z,3.30
2023-04-14T07:42:05.092Z,3.20
2023-04-14T07:47:09.112Z,3.50
2023-04-14T07:52:13.144Z,3.20
2023-04-14T07:57:17.214Z,3.60
2023-04-14T08:02:22.752Z,3.40
2023-04-14T08:07:28.915Z,3.50
2023-04-14T08:12:32.852Z,3.30
2023-04-14T08:17:37.018Z,4.50
2023-04-14T08:22:40.918Z,3.70
2023-04-14T08:27:45.054Z,4.10
2023-04-14T08:32:49.463Z,4.10
2023-04-14T08:37:53.459Z,4.10
2023-04-14T08:42:57.438Z,4.00
2023-04-14T08:48:03.990Z,3.80
2023-04-14T08:53:10.450Z,3.80
2023-04-14T08:58:14.674Z,4.20
2023-04-14T09:03:19.356Z,4.00
2023-04-14T09:08:24.066Z,3.90
2023-04-14T09:13:29.828Z,4.40
2023-04-14T09:18:34.858Z,4.30
2023-04-14T09:23:42.093Z,4.60
2023-04-14T09:28:46.128Z,4.20
2023-04-14T09:33:53.491Z,4.80
2023-04-14T09:38:57.568Z,4.60
2023-04-14T09:44:08.714Z,4.20
2023-04-14T09:49:12.716Z,4.40
2023-04-14T09:54:27.022Z,4.90
2023-04-14T09:59:32.633Z,5.40
2023-04-14T10:04:38.817Z,4.90
2023-04-14T10:09:43.367Z,6.20
2023-04-14T10:14:47.308Z,5.10
2023-04-14T10:19:52.051Z,5.50
2023-04-14T10:24:57.000Z,5.90
2023-04-14T10:30:05.031Z,5.30
2023-04-14T10:35:14.307Z,5.60
2023-04-14T10:40:18.885Z,5.80
2023-04-14T10:45:23.244Z,5.90
2023-04-14T10:50:29.334Z,5.60
2023-04-14T10:55:52.099Z,5.60
2023-04-14T11:00:59.250Z,5.60
2023-04-14T11:06:03.318Z,5.40
2023-04-14T11:11:07.561Z,6.20
2023-04-14T11:16:12.881Z,5.90
2023-04-14T11:21:18.504Z,5.90
2023-04-14T11:26:24.791Z,5.50
2023-04-14T11:31:28.668Z,6.10
2023-04-14T11:36:36.643Z,5.90
2023-04-14T11:41:40.565Z,6.50
2023-04-14T11:46:44.701Z,5.90
2023-04-14T11:51:48.740Z,6.30
2023-04-14T11:56:52.979Z,5.70
2023-04-14T12:01:58.569Z,5.50
2023-04-14T12:07:02.779Z,8.30
2023-04-14T12:17:39.546Z,6.20
2023-04-14T12:22:43.527Z,6.50
2023-04-14T12:27:56.552Z,6.50
2023-04-14T12:33:10.193Z,6.30
2023-04-14T12:38:15.091Z,6.40
2023-04-14T12:43:28.962Z,6.80
2023-04-14T12:48:47.251Z,6.50
2023-04-14T12:53:52.855Z,6.20
2023-04-14T12:58:57.085Z,6.20
2023-04-14T13:04:02.051Z,7.40
2023-04-14T13:09:06.520Z,7.00
2023-04-14T13:14:11.131Z,6.00
2023-04-14T13:19:15.369Z,7.30
2023-04-14T13:24:19.407Z,7.30
2023-04-14T13:29:23.366Z,7.50
2023-04-14T13:34:28.638Z,8.60
2023-04-14T13:39:33.257Z,7.80
2023-04-14T13:44:37.803Z,9.20
2023-04-14T13:49:41.829Z,8.80
2023-04-14T13:54:45.749Z,9.20
2023-04-14T13:59:50.708Z,9.70
2023-04-14T14:04:54.545Z,10.10
2023-04-14T14:09:58.477Z,10.80
2023-04-14T14:15:03.417Z,10.00
2023-04-14T14:20:09.969Z,10.30
2023-04-14T14:25:20.134Z,10.60
2023-04-14T14:30:26.472Z,9.60
2023-04-14T14:35:30.700Z,9.70
2023-04-14T14:40:34.598Z,10.90
2023-04-14T14:45:38.683Z,11.70
2023-04-14T14:50:42.902Z,11.20
2023-04-14T14:55:47.102Z,11.00
2023-04-14T15:00:51.328Z,12.60
2023-04-14T15:05:55.268Z,11.00
2023-04-14T15:10:59.213Z,12.40
2023-04-14T15:16:03.416Z,11.50
2023-04-14T15:21:07.422Z,10.70
2023-04-14T15:26:16.898Z,11.00
2023-04-14T15:31:21.153Z,11.70
2023-04-14T15:36:25.477Z,11.10
2023-04-14T15:41:29.319Z,11.30
2023-04-14T15:46:33.448Z,12.20
2023-04-14T15:51:38.173Z,12.50
2023-04-14T15:56:42.609Z,12.00
2023-04-14T16:01:47.066Z,11.50
2023-04-14T16:06:51.696Z,12.20
2023-04-14T16:11:57.583Z,12.30
2023-04-14T16:17:01.711Z,12.50
2023-04-14T16:22:06.152Z,11.30
2023-04-14T16:27:12.465Z,11.60
2023-04-14T16:32:18.025Z,11.60
2023-04-14T16:37:26.654Z,11.30
2023-04-14T16:42:31.682Z,11.30
2023-04-14T16:47:37.144Z,12.00
2023-04-14T16:52:45.669Z,11.40
2023-04-14T16:57:53.200Z,10.70
2023-04-14T17:02:58.653Z,11.10
2023-04-14T17:08:04.192Z,10.80
2023-04-14T17:13:08.986Z,11.00
2023-04-14T17:18:13.806Z,10.70
2023-04-14T17:23:22.697Z,10.60
2023-04-14T17:28:30.594Z,11.20
2023-04-14T17:33:36.278Z,11.70
2023-04-14T17:38:44.381Z,10.80
2023-04-14T17:43:51.838Z,11.20
2023-04-14T17:54:20.550Z,10.40
2023-04-14T17:59:28.455Z,10.70
2023-04-14T18:04:34.538Z,9.90
2023-04-14T18:09:45.454Z,9.90
2023-04-14T18:14:55.191Z,10.00
2023-04-14T18:20:05.443Z,10.50
2023-04-14T18:25:11.590Z,10.90
2023-04-14T18:30:17.759Z,10.60
2023-04-14T18:35:26.260Z,10.40
2023-04-14T18:40:35.031Z,11.60
2023-04-14T18:45:52.602Z,10.40
2023-04-14T18:51:09.054Z,10.90
2023-04-14T18:56:16.062Z,12.10
2023-04-14T19:01:23.691Z,10.70
2023-04-14T19:06:30.433Z,11.10
2023-04-14T19:11:37.898Z,10.90
2023-04-14T19:16:45.179Z,10.70
2023-04-14T19:21:53.372Z,11.80
2023-04-14T19:27:00.975Z,11.50
2023-04-14T19:32:07.353Z,13.90
2023-04-14T19:37:15.355Z,11.70
2023-04-14T19:42:21.574Z,11.20
2023-04-14T19:47:28.126Z,12.30
2023-04-14T19:52:33.948Z,11.20
2023-04-14T19:57:52.978Z,11.40
2023-04-14T20:03:02.254Z,11.70
2023-04-14T20:08:07.578Z,11.80
2023-04-14T20:13:16.003Z,11.50
2023-04-14T20:18:29.510Z,11.50
2023-04-14T20:23:37.212Z,12.20
2023-04-14T20:28:45.300Z,11.90
2023-04-14T20:33:53.413Z,11.40
2023-04-14T20:39:01.048Z,11.90
2023-04-14T20:44:06.523Z,11.80
2023-04-14T20:49:12.277Z,11.60
2023-04-14T20:54:16.313Z,12.30
2023-04-14T20:59:22.399Z,12.80
2023-04-14T21:04:27.498Z,12.70
2023-04-14T21:09:31.788Z,14.00
2023-04-14T21:15:42.174Z,12.20
2023-04-14T21:20:01.754Z,11.90
2023-04-14T21:25:06.517Z,12.90
2023-04-14T21:30:11.259Z,12.40
2023-04-14T21:35:16.716Z,12.60
2023-04-14T21:40:20.749Z,12.00
2023-04-14T21:45:25.494Z,12.50
2023-04-14T21:50:30.977Z,12.00
2023-04-14T21:55:37.386Z,11.20
2023-04-14T22:00:42.196Z,12.60
2023-04-14T22:05:46.239Z,13.20
2023-04-14T22:10:50.880Z,11.90
2023-04-14T22:15:55.530Z,11.40
2023-04-14T22:20:59.344Z,11.80
2023-04-14T22:26:04.003Z,12.50
2023-04-14T22:31:08.161Z,12.60
2023-04-14T22:36:12.165Z,12.40
2023-04-14T22:41:16.716Z,11.90
2023-04-14T22:46:20.756Z,12.10
2023-04-14T22:51:24.684Z,12.80
2023-04-14T22:56:28.904Z,12.30
2023-04-14T23:01:33.068Z,11.80
2023-04-14T23:06:37.275Z,12.00
2023-04-14T23:11:41.124Z,10.90
2023-04-14T23:16:45.145Z,11.80
2023-04-14T23:21:49.077Z,11.60
2023-04-14T23:26:53.210Z,12.00
2023-04-14T23:31:57.720Z,11.80
2023-04-14T23:37:01.798Z,11.40
2023-04-14T23:42:05.804Z,11.60
2023-04-14T23:47:09.878Z,10.60
2023-04-14T23:52:14.085Z,11.30
2023-04-14T23:57:18.326Z,11.20
